sensor_id;sensor_type;location;lat;lon;timestamp;temperature;humidity
70076;DHT22;63241;51.056;3.698;2022-11-15T00:02:17;12.00;99.90
70076;DHT22;63241;51.056;3.698;2022-11-15T00:05:22;12.00;99.90
70076;DHT22;63241;51.056;3.698;2022-11-15T00:08:11;12.10;99.90
70076;DHT22;63241;51.056;3.698;2022-11-15T00:11:01;12.10;99.90
70076;DHT22;63241;51.056;3.698;2022-11-15T00:13:50;12.20;99.90
70076;DHT22;63241;51.056;3.698;2022-11-15T00:16:38;12.10;99.90
70076;DHT22;63241;51.056;3.698;2022-11-15T00:19:26;12.10;99.90
70076;DHT22;63241;51.056;3.698;2022-11-15T00:22:14;12.20;99.90
70076;DHT22;63241;51.056;3.698;2022-11-15T00:25:02;12.20;99.90
70076;DHT22;63241;51.056;3.698;2022-11-15T00:27:54;12.30;99.90
70076;DHT22;63241;51.056;3.698;2022-11-15T00:33:06;12.30;99.90
70076;DHT22;63241;51.056;3.698;2022-11-15T00:35:59;12.40;99.90
70076;DHT22;63241;51.056;3.698;2022-11-15T00:38:47;12.30;99.90
70076;DHT22;63241;51.056;3.698;2022-11-15T00:41:35;12.30;99.90
70076;DHT22;63241;51.056;3.698;2022-11-15T00:44:24;12.20;99.90
70076;DHT22;63241;51.056;3.698;2022-11-15T00:47:13;12.30;99.90
70076;DHT22;63241;51.056;3.698;2022-11-15T00:50:00;12.20;99.90
70076;DHT22;63241;51.056;3.698;2022-11-15T00:52:48;12.30;99.90
70076;DHT22;63241;51.056;3.698;2022-11-15T00:55:17;12.30;99.90
70076;DHT22;63241;51.056;3.698;2022-11-15T00:58:05;12.40;99.90
70076;DHT22;63241;51.056;3.698;2022-11-15T01:00:55;12.50;99.90
70076;DHT22;63241;51.056;3.698;2022-11-15T01:03:43;12.40;99.90
70076;DHT22;63241;51.056;3.698;2022-11-15T01:06:31;12.30;99.90
70076;DHT22;63241;51.056;3.698;2022-11-15T01:09:19;12.40;99.90
70076;DHT22;63241;51.056;3.698;2022-11-15T01:12:07;12.40;99.90
70076;DHT22;63241;51.056;3.698;2022-11-15T01:14:56;12.30;99.90
70076;DHT22;63241;51.056;3.698;2022-11-15T01:17:44;12.20;99.90
70076;DHT22;63241;51.056;3.698;2022-11-15T01:20:33;12.20;99.90
70076;DHT22;63241;51.056;3.698;2022-11-15T01:23:21;12.20;99.90
70076;DHT22;63241;51.056;3.698;2022-11-15T01:26:11;12.10;99.90
70076;DHT22;63241;51.056;3.698;2022-11-15T01:29:00;12.10;99.90
70076;DHT22;63241;51.056;3.698;2022-11-15T01:31:46;12.20;99.90
70076;DHT22;63241;51.056;3.698;2022-11-15T01:34:35;12.20;99.90
70076;DHT22;63241;51.056;3.698;2022-11-15T01:37:24;12.10;99.90
70076;DHT22;63241;51.056;3.698;2022-11-15T01:40:12;12.20;99.90
70076;DHT22;63241;51.056;3.698;2022-11-15T01:42:59;12.20;99.90
70076;DHT22;63241;51.056;3.698;2022-11-15T01:45:50;12.30;99.90
70076;DHT22;63241;51.056;3.698;2022-11-15T01:48:39;12.30;99.90
70076;DHT22;63241;51.056;3.698;2022-11-15T01:51:29;12.30;99.90
70076;DHT22;63241;51.056;3.698;2022-11-15T01:54:21;12.30;99.90
70076;DHT22;63241;51.056;3.698;2022-11-15T01:57:13;12.30;99.90
70076;DHT22;63241;51.056;3.698;2022-11-15T02:00:03;12.30;99.90
70076;DHT22;63241;51.056;3.698;2022-11-15T02:05:19;12.20;99.90
70076;DHT22;63241;51.056;3.698;2022-11-15T02:08:09;12.20;99.90
70076;DHT22;63241;51.056;3.698;2022-11-15T02:10:58;12.20;99.90
70076;DHT22;63241;51.056;3.698;2022-11-15T02:13:47;12.20;99.90
70076;DHT22;63241;51.056;3.698;2022-11-15T02:16:55;12.20;99.90
70076;DHT22;63241;51.056;3.698;2022-11-15T02:22:57;12.20;99.90
70076;DHT22;63241;51.056;3.698;2022-11-15T02:31:53;12.10;99.90
70076;DHT22;63241;51.056;3.698;2022-11-15T02:37:51;12.10;99.90
70076;DHT22;63241;51.056;3.698;2022-11-15T02:40:54;12.10;99.90
70076;DHT22;63241;51.056;3.698;2022-11-15T02:43:48;12.10;99.90
70076;DHT22;63241;51.056;3.698;2022-11-15T02:46:50;12.10;99.90
70076;DHT22;63241;51.056;3.698;2022-11-15T02:49:58;12.10;99.90
70076;DHT22;63241;51.056;3.698;2022-11-15T02:52:50;12.10;99.90
70076;DHT22;63241;51.056;3.698;2022-11-15T02:55:48;12.20;99.90
70076;DHT22;63241;51.056;3.698;2022-11-15T02:59:00;12.10;99.90
70076;DHT22;63241;51.056;3.698;2022-11-15T03:08:17;12.00;99.90
70076;DHT22;63241;51.056;3.698;2022-11-15T03:14:39;12.00;99.90
70076;DHT22;63241;51.056;3.698;2022-11-15T03:17:45;11.90;99.90
70076;DHT22;63241;51.056;3.698;2022-11-15T03:20:28;11.90;99.90
70076;DHT22;63241;51.056;3.698;2022-11-15T03:23:17;11.80;99.90
70076;DHT22;63241;51.056;3.698;2022-11-15T03:26:08;11.90;99.90
70076;DHT22;63241;51.056;3.698;2022-11-15T03:29:03;11.80;99.90
70076;DHT22;63241;51.056;3.698;2022-11-15T03:31:51;11.80;99.90
70076;DHT22;63241;51.056;3.698;2022-11-15T03:37:40;11.70;99.90
70076;DHT22;63241;51.056;3.698;2022-11-15T03:40:41;11.60;99.90
70076;DHT22;63241;51.056;3.698;2022-11-15T03:43:48;11.60;99.90
70076;DHT22;63241;51.056;3.698;2022-11-15T03:46:40;11.50;99.90
70076;DHT22;63241;51.056;3.698;2022-11-15T03:49:34;11.40;99.90
70076;DHT22;63241;51.056;3.698;2022-11-15T03:52:24;11.40;99.90
70076;DHT22;63241;51.056;3.698;2022-11-15T03:55:18;11.30;99.90
70076;DHT22;63241;51.056;3.698;2022-11-15T03:58:03;11.30;99.90
70076;DHT22;63241;51.056;3.698;2022-11-15T04:00:59;11.10;99.90
70076;DHT22;63241;51.056;3.698;2022-11-15T04:03:50;11.10;99.90
70076;DHT22;63241;51.056;3.698;2022-11-15T04:06:38;11.10;99.90
70076;DHT22;63241;51.056;3.698;2022-11-15T04:09:26;11.20;99.90
70076;DHT22;63241;51.056;3.698;2022-11-15T04:12:13;11.20;99.90
70076;DHT22;63241;51.056;3.698;2022-11-15T04:15:07;11.10;99.90
70076;DHT22;63241;51.056;3.698;2022-11-15T04:20:23;11.00;99.90
70076;DHT22;63241;51.056;3.698;2022-11-15T04:27:09;10.90;99.90
70076;DHT22;63241;51.056;3.698;2022-11-15T04:33:22;10.60;99.90
70076;DHT22;63241;51.056;3.698;2022-11-15T04:36:10;10.50;99.90
70076;DHT22;63241;51.056;3.698;2022-11-15T04:39:14;10.50;99.90
70076;DHT22;63241;51.056;3.698;2022-11-15T04:42:05;10.30;99.90
70076;DHT22;63241;51.056;3.698;2022-11-15T04:44:53;10.20;99.90
70076;DHT22;63241;51.056;3.698;2022-11-15T04:47:20;10.20;99.90
70076;DHT22;63241;51.056;3.698;2022-11-15T04:50:09;10.10;99.90
70076;DHT22;63241;51.056;3.698;2022-11-15T04:53:00;10.10;99.90
70076;DHT22;63241;51.056;3.698;2022-11-15T04:55:47;10.10;99.90
70076;DHT22;63241;51.056;3.698;2022-11-15T04:58:36;10.10;99.90
70076;DHT22;63241;51.056;3.698;2022-11-15T05:01:24;10.10;99.90
70076;DHT22;63241;51.056;3.698;2022-11-15T05:04:11;10.00;99.90
70076;DHT22;63241;51.056;3.698;2022-11-15T05:07:06;9.90;99.90
70076;DHT22;63241;51.056;3.698;2022-11-15T05:09:55;9.90;99.90
70076;DHT22;63241;51.056;3.698;2022-11-15T05:12:43;9.90;99.90
70076;DHT22;63241;51.056;3.698;2022-11-15T05:15:31;9.80;99.90
70076;DHT22;63241;51.056;3.698;2022-11-15T05:18:19;9.80;99.90
70076;DHT22;63241;51.056;3.698;2022-11-15T05:21:10;9.80;99.90
70076;DHT22;63241;51.056;3.698;2022-11-15T05:23:59;9.80;99.90
70076;DHT22;63241;51.056;3.698;2022-11-15T05:26:46;9.80;99.90
70076;DHT22;63241;51.056;3.698;2022-11-15T05:29:34;9.70;99.90
70076;DHT22;63241;51.056;3.698;2022-11-15T05:32:22;9.70;99.90
70076;DHT22;63241;51.056;3.698;2022-11-15T05:35:12;9.60;99.90
70076;DHT22;63241;51.056;3.698;2022-11-15T05:37:41;9.60;99.90
70076;DHT22;63241;51.056;3.698;2022-11-15T05:40:30;9.50;99.90
70076;DHT22;63241;51.056;3.698;2022-11-15T05:43:18;9.50;99.90
70076;DHT22;63241;51.056;3.698;2022-11-15T05:46:06;9.50;99.90
70076;DHT22;63241;51.056;3.698;2022-11-15T05:48:55;9.40;99.90
70076;DHT22;63241;51.056;3.698;2022-11-15T05:51:45;9.40;99.90
70076;DHT22;63241;51.056;3.698;2022-11-15T05:54:36;9.40;99.90
70076;DHT22;63241;51.056;3.698;2022-11-15T05:57:24;9.30;99.90
70076;DHT22;63241;51.056;3.698;2022-11-15T06:00:14;9.30;99.90
70076;DHT22;63241;51.056;3.698;2022-11-15T06:03:02;9.30;99.90
70076;DHT22;63241;51.056;3.698;2022-11-15T06:05:50;9.20;99.90
70076;DHT22;63241;51.056;3.698;2022-11-15T06:08:38;9.20;99.90
70076;DHT22;63241;51.056;3.698;2022-11-15T06:11:06;9.20;99.90
70076;DHT22;63241;51.056;3.698;2022-11-15T06:13:54;9.20;99.90
70076;DHT22;63241;51.056;3.698;2022-11-15T06:16:43;9.10;99.90
70076;DHT22;63241;51.056;3.698;2022-11-15T06:19:31;9.20;99.90
70076;DHT22;63241;51.056;3.698;2022-11-15T06:22:18;9.20;99.90
70076;DHT22;63241;51.056;3.698;2022-11-15T06:25:06;9.10;99.90
70076;DHT22;63241;51.056;3.698;2022-11-15T06:27:58;9.00;99.90
70076;DHT22;63241;51.056;3.698;2022-11-15T06:30:47;9.00;99.90
70076;DHT22;63241;51.056;3.698;2022-11-15T06:33:38;9.00;99.90
70076;DHT22;63241;51.056;3.698;2022-11-15T06:36:26;9.10;99.90
70076;DHT22;63241;51.056;3.698;2022-11-15T06:39:16;9.00;99.90
70076;DHT22;63241;51.056;3.698;2022-11-15T06:42:04;9.00;99.90
70076;DHT22;63241;51.056;3.698;2022-11-15T06:44:53;9.10;99.90
70076;DHT22;63241;51.056;3.698;2022-11-15T06:47:45;9.10;99.90
70076;DHT22;63241;51.056;3.698;2022-11-15T06:50:34;9.00;99.90
70076;DHT22;63241;51.056;3.698;2022-11-15T06:53:04;9.00;99.90
70076;DHT22;63241;51.056;3.698;2022-11-15T06:55:52;9.00;99.90
70076;DHT22;63241;51.056;3.698;2022-11-15T06:58:40;9.10;99.90
70076;DHT22;63241;51.056;3.698;2022-11-15T07:01:29;9.10;99.90
70076;DHT22;63241;51.056;3.698;2022-11-15T07:04:17;9.10;99.90
70076;DHT22;63241;51.056;3.698;2022-11-15T07:07:06;9.10;99.90
70076;DHT22;63241;51.056;3.698;2022-11-15T07:09:55;9.10;99.90
70076;DHT22;63241;51.056;3.698;2022-11-15T07:12:48;9.20;99.90
70076;DHT22;63241;51.056;3.698;2022-11-15T07:15:37;9.30;99.90
70076;DHT22;63241;51.056;3.698;2022-11-15T07:18:25;9.30;99.90
70076;DHT22;63241;51.056;3.698;2022-11-15T07:21:13;9.30;99.90
70076;DHT22;63241;51.056;3.698;2022-11-15T07:24:02;9.30;99.90
70076;DHT22;63241;51.056;3.698;2022-11-15T07:26:50;9.30;99.90
70076;DHT22;63241;51.056;3.698;2022-11-15T07:29:38;9.40;99.90
70076;DHT22;63241;51.056;3.698;2022-11-15T07:32:26;9.50;99.90
70076;DHT22;63241;51.056;3.698;2022-11-15T07:35:15;9.60;99.90
70076;DHT22;63241;51.056;3.698;2022-11-15T07:37:52;9.70;99.90
70076;DHT22;63241;51.056;3.698;2022-11-15T07:40:34;9.80;99.90
70076;DHT22;63241;51.056;3.698;2022-11-15T07:43:22;9.80;99.90
70076;DHT22;63241;51.056;3.698;2022-11-15T07:46:10;10.00;99.90
70076;DHT22;63241;51.056;3.698;2022-11-15T07:48:57;10.20;99.90
70076;DHT22;63241;51.056;3.698;2022-11-15T07:51:45;10.30;99.90
70076;DHT22;63241;51.056;3.698;2022-11-15T07:54:34;10.40;99.90
70076;DHT22;63241;51.056;3.698;2022-11-15T07:57:22;10.50;99.90
70076;DHT22;63241;51.056;3.698;2022-11-15T07:59:49;10.50;99.90
70076;DHT22;63241;51.056;3.698;2022-11-15T08:02:37;10.60;99.90
70076;DHT22;63241;51.056;3.698;2022-11-15T08:05:25;10.70;99.90
70076;DHT22;63241;51.056;3.698;2022-11-15T08:08:14;10.60;99.90
70076;DHT22;63241;51.056;3.698;2022-11-15T08:11:00;10.50;99.90
70076;DHT22;63241;51.056;3.698;2022-11-15T08:13:28;10.40;99.90
70076;DHT22;63241;51.056;3.698;2022-11-15T08:16:17;10.40;99.90
70076;DHT22;63241;51.056;3.698;2022-11-15T08:19:06;10.40;99.90
70076;DHT22;63241;51.056;3.698;2022-11-15T08:21:53;10.50;99.90
70076;DHT22;63241;51.056;3.698;2022-11-15T08:24:41;10.60;99.90
70076;DHT22;63241;51.056;3.698;2022-11-15T08:27:29;10.60;99.90
70076;DHT22;63241;51.056;3.698;2022-11-15T08:30:17;10.80;99.90
70076;DHT22;63241;51.056;3.698;2022-11-15T08:33:04;11.00;99.90
70076;DHT22;63241;51.056;3.698;2022-11-15T08:35:55;11.20;99.90
70076;DHT22;63241;51.056;3.698;2022-11-15T08:38:42;11.30;99.90
70076;DHT22;63241;51.056;3.698;2022-11-15T08:41:38;11.40;99.90
70076;DHT22;63241;51.056;3.698;2022-11-15T08:44:26;11.60;99.90
70076;DHT22;63241;51.056;3.698;2022-11-15T08:47:14;11.70;99.90
70076;DHT22;63241;51.056;3.698;2022-11-15T08:50:03;11.70;99.90
70076;DHT22;63241;51.056;3.698;2022-11-15T08:52:51;11.70;99.90
70076;DHT22;63241;51.056;3.698;2022-11-15T08:55:41;11.90;99.90
70076;DHT22;63241;51.056;3.698;2022-11-15T08:58:30;12.00;99.90
70076;DHT22;63241;51.056;3.698;2022-11-15T09:00:58;12.20;99.90
70076;DHT22;63241;51.056;3.698;2022-11-15T09:03:46;12.50;99.90
70076;DHT22;63241;51.056;3.698;2022-11-15T09:06:33;12.60;99.90
70076;DHT22;63241;51.056;3.698;2022-11-15T09:09:21;12.90;99.90
70076;DHT22;63241;51.056;3.698;2022-11-15T09:12:11;13.20;99.90
70076;DHT22;63241;51.056;3.698;2022-11-15T09:14:59;14.20;98.60
70076;DHT22;63241;51.056;3.698;2022-11-15T09:17:27;15.50;93.70
70076;DHT22;63241;51.056;3.698;2022-11-15T09:20:16;16.00;85.30
70076;DHT22;63241;51.056;3.698;2022-11-15T09:23:06;15.60;84.00
70076;DHT22;63241;51.056;3.698;2022-11-15T09:26:01;14.80;86.50
70076;DHT22;63241;51.056;3.698;2022-11-15T09:28:50;14.20;89.10
70076;DHT22;63241;51.056;3.698;2022-11-15T09:31:38;13.80;91.20
70076;DHT22;63241;51.056;3.698;2022-11-15T09:34:25;13.60;91.90
70076;DHT22;63241;51.056;3.698;2022-11-15T09:37:14;13.50;92.30
70076;DHT22;63241;51.056;3.698;2022-11-15T09:40:02;14.00;92.80
70076;DHT22;63241;51.056;3.698;2022-11-15T09:42:58;15.60;88.70
70076;DHT22;63241;51.056;3.698;2022-11-15T09:51:45;17.20;73.40
70076;DHT22;63241;51.056;3.698;2022-11-15T09:54:39;17.20;71.80
70076;DHT22;63241;51.056;3.698;2022-11-15T10:03:14;16.20;72.30
70076;DHT22;63241;51.056;3.698;2022-11-15T10:06:04;15.80;73.80
70076;DHT22;63241;51.056;3.698;2022-11-15T10:09:16;15.50;75.50
70076;DHT22;63241;51.056;3.698;2022-11-15T10:12:06;15.50;76.40
70076;DHT22;63241;51.056;3.698;2022-11-15T10:15:00;15.40;75.90
70076;DHT22;63241;51.056;3.698;2022-11-15T10:18:17;15.60;75.40
70076;DHT22;63241;51.056;3.698;2022-11-15T10:21:29;15.70;75.40
70076;DHT22;63241;51.056;3.698;2022-11-15T10:24:16;16.10;73.20
70076;DHT22;63241;51.056;3.698;2022-11-15T10:27:07;16.20;72.20
70076;DHT22;63241;51.056;3.698;2022-11-15T10:29:53;16.40;72.00
70076;DHT22;63241;51.056;3.698;2022-11-15T10:36:23;16.60;69.60
70076;DHT22;63241;51.056;3.698;2022-11-15T10:39:14;16.40;69.80
70076;DHT22;63241;51.056;3.698;2022-11-15T10:42:17;16.40;70.30
70076;DHT22;63241;51.056;3.698;2022-11-15T10:51:27;17.30;67.60
70076;DHT22;63241;51.056;3.698;2022-11-15T10:57:38;17.30;65.00
70076;DHT22;63241;51.056;3.698;2022-11-15T11:00:35;16.90;65.80
70076;DHT22;63241;51.056;3.698;2022-11-15T11:06:19;17.10;66.60
70076;DHT22;63241;51.056;3.698;2022-11-15T11:09:09;17.40;65.10
70076;DHT22;63241;51.056;3.698;2022-11-15T11:11:59;17.50;64.40
70076;DHT22;63241;51.056;3.698;2022-11-15T11:14:46;17.50;64.90
70076;DHT22;63241;51.056;3.698;2022-11-15T11:17:42;17.40;65.50
70076;DHT22;63241;51.056;3.698;2022-11-15T11:20:44;17.40;65.20
70076;DHT22;63241;51.056;3.698;2022-11-15T11:26:42;17.20;64.50
70076;DHT22;63241;51.056;3.698;2022-11-15T11:33:07;16.80;66.30
70076;DHT22;63241;51.056;3.698;2022-11-15T11:42:29;16.10;69.20
70076;DHT22;63241;51.056;3.698;2022-11-15T11:48:32;15.70;71.20
70076;DHT22;63241;51.056;3.698;2022-11-15T11:54:05;15.30;72.80
70076;DHT22;63241;51.056;3.698;2022-11-15T11:56:52;15.20;73.70
70076;DHT22;63241;51.056;3.698;2022-11-15T11:59:51;15.10;74.90
70076;DHT22;63241;51.056;3.698;2022-11-15T12:02:45;15.00;75.10
70076;DHT22;63241;51.056;3.698;2022-11-15T12:05:42;15.10;75.50
70076;DHT22;63241;51.056;3.698;2022-11-15T12:14:31;15.20;75.30
70076;DHT22;63241;51.056;3.698;2022-11-15T12:17:21;15.00;75.90
70076;DHT22;63241;51.056;3.698;2022-11-15T12:19:49;14.90;77.00
70076;DHT22;63241;51.056;3.698;2022-11-15T12:22:49;14.80;78.10
70076;DHT22;63241;51.056;3.698;2022-11-15T12:25:51;14.70;78.90
70076;DHT22;63241;51.056;3.698;2022-11-15T12:28:42;14.60;79.90
70076;DHT22;63241;51.056;3.698;2022-11-15T12:31:39;14.60;80.60
70076;DHT22;63241;51.056;3.698;2022-11-15T12:34:33;14.80;80.30
70076;DHT22;63241;51.056;3.698;2022-11-15T12:40:33;14.80;79.90
70076;DHT22;63241;51.056;3.698;2022-11-15T12:46:05;14.90;79.80
70076;DHT22;63241;51.056;3.698;2022-11-15T12:48:55;14.90;79.70
70076;DHT22;63241;51.056;3.698;2022-11-15T12:57:34;14.70;80.50
70076;DHT22;63241;51.056;3.698;2022-11-15T13:03:25;14.60;82.50
70076;DHT22;63241;51.056;3.698;2022-11-15T13:06:34;14.60;82.80
70076;DHT22;63241;51.056;3.698;2022-11-15T13:11:49;14.70;82.90
70076;DHT22;63241;51.056;3.698;2022-11-15T13:14:57;14.50;83.60
70076;DHT22;63241;51.056;3.698;2022-11-15T13:17:50;14.60;83.60
70076;DHT22;63241;51.056;3.698;2022-11-15T13:20:38;14.50;83.50
70076;DHT22;63241;51.056;3.698;2022-11-15T13:23:27;14.50;84.10
70076;DHT22;63241;51.056;3.698;2022-11-15T13:26:16;14.40;85.00
70076;DHT22;63241;51.056;3.698;2022-11-15T13:29:04;14.40;85.90
70076;DHT22;63241;51.056;3.698;2022-11-15T13:31:53;14.40;85.10
70076;DHT22;63241;51.056;3.698;2022-11-15T13:34:50;14.40;85.30
70076;DHT22;63241;51.056;3.698;2022-11-15T13:37:37;14.30;87.80
70076;DHT22;63241;51.056;3.698;2022-11-15T13:40:28;14.40;92.00
70076;DHT22;63241;51.056;3.698;2022-11-15T13:46:23;13.90;94.30
70076;DHT22;63241;51.056;3.698;2022-11-15T13:49:11;13.80;94.10
70076;DHT22;63241;51.056;3.698;2022-11-15T13:52:02;13.80;94.50
70076;DHT22;63241;51.056;3.698;2022-11-15T13:55:02;13.90;94.40
70076;DHT22;63241;51.056;3.698;2022-11-15T13:57:53;13.90;93.60
70076;DHT22;63241;51.056;3.698;2022-11-15T14:00:45;13.80;94.80
70076;DHT22;63241;51.056;3.698;2022-11-15T14:03:46;13.80;97.80
70076;DHT22;63241;51.056;3.698;2022-11-15T14:15:28;13.30;99.90
70076;DHT22;63241;51.056;3.698;2022-11-15T14:18:48;13.20;99.90
70076;DHT22;63241;51.056;3.698;2022-11-15T14:22:12;13.10;99.90
70076;DHT22;63241;51.056;3.698;2022-11-15T14:31:12;12.80;99.90
70076;DHT22;63241;51.056;3.698;2022-11-15T14:34:00;12.80;99.90
70076;DHT22;63241;51.056;3.698;2022-11-15T14:36:49;12.50;99.90
70076;DHT22;63241;51.056;3.698;2022-11-15T14:39:36;12.40;99.90
70076;DHT22;63241;51.056;3.698;2022-11-15T14:42:25;12.20;99.90
70076;DHT22;63241;51.056;3.698;2022-11-15T14:45:21;12.10;99.90
70076;DHT22;63241;51.056;3.698;2022-11-15T14:48:09;12.00;99.90
70076;DHT22;63241;51.056;3.698;2022-11-15T14:50:57;11.90;99.90
70076;DHT22;63241;51.056;3.698;2022-11-15T14:53:45;11.80;99.90
70076;DHT22;63241;51.056;3.698;2022-11-15T14:56:33;11.80;99.90
70076;DHT22;63241;51.056;3.698;2022-11-15T14:59:21;11.80;99.90
70076;DHT22;63241;51.056;3.698;2022-11-15T15:02:16;11.90;99.90
70076;DHT22;63241;51.056;3.698;2022-11-15T15:05:15;11.80;99.90
70076;DHT22;63241;51.056;3.698;2022-11-15T15:08:05;11.80;99.90
70076;DHT22;63241;51.056;3.698;2022-11-15T15:10:53;11.80;99.90
70076;DHT22;63241;51.056;3.698;2022-11-15T15:13:41;11.80;99.90
70076;DHT22;63241;51.056;3.698;2022-11-15T15:16:29;11.70;99.90
70076;DHT22;63241;51.056;3.698;2022-11-15T15:19:17;11.70;99.90
70076;DHT22;63241;51.056;3.698;2022-11-15T15:22:05;11.70;99.90
70076;DHT22;63241;51.056;3.698;2022-11-15T15:24:53;11.80;99.90
70076;DHT22;63241;51.056;3.698;2022-11-15T15:27:41;11.80;99.90
70076;DHT22;63241;51.056;3.698;2022-11-15T15:30:29;11.80;99.90
70076;DHT22;63241;51.056;3.698;2022-11-15T15:33:17;11.80;99.90
70076;DHT22;63241;51.056;3.698;2022-11-15T15:36:04;11.80;99.90
70076;DHT22;63241;51.056;3.698;2022-11-15T15:38:52;11.80;99.90
70076;DHT22;63241;51.056;3.698;2022-11-15T15:41:41;11.80;99.90
70076;DHT22;63241;51.056;3.698;2022-11-15T15:44:28;11.80;99.90
70076;DHT22;63241;51.056;3.698;2022-11-15T15:47:20;11.80;99.90
70076;DHT22;63241;51.056;3.698;2022-11-15T15:50:20;11.90;99.90
70076;DHT22;63241;51.056;3.698;2022-11-15T15:53:07;11.90;99.90
70076;DHT22;63241;51.056;3.698;2022-11-15T15:55:56;11.90;99.90
70076;DHT22;63241;51.056;3.698;2022-11-15T15:58:44;11.90;99.90
70076;DHT22;63241;51.056;3.698;2022-11-15T16:01:33;11.90;99.90
70076;DHT22;63241;51.056;3.698;2022-11-15T16:04:22;11.80;99.90
70076;DHT22;63241;51.056;3.698;2022-11-15T16:07:16;11.80;99.90
70076;DHT22;63241;51.056;3.698;2022-11-15T16:10:18;11.80;99.90
70076;DHT22;63241;51.056;3.698;2022-11-15T16:13:06;11.90;99.90
70076;DHT22;63241;51.056;3.698;2022-11-15T16:15:55;11.90;99.90
70076;DHT22;63241;51.056;3.698;2022-11-15T16:18:44;12.00;99.90
70076;DHT22;63241;51.056;3.698;2022-11-15T16:21:31;11.90;99.90
70076;DHT22;63241;51.056;3.698;2022-11-15T16:24:17;11.90;99.90
70076;DHT22;63241;51.056;3.698;2022-11-15T16:27:09;11.80;99.90
70076;DHT22;63241;51.056;3.698;2022-11-15T16:29:55;11.80;99.90
70076;DHT22;63241;51.056;3.698;2022-11-15T16:32:44;11.90;99.90
70076;DHT22;63241;51.056;3.698;2022-11-15T16:39:16;11.90;99.90
70076;DHT22;63241;51.056;3.698;2022-11-15T16:44:30;12.00;99.90
70076;DHT22;63241;51.056;3.698;2022-11-15T16:47:18;12.00;99.90
70076;DHT22;63241;51.056;3.698;2022-11-15T16:50:07;12.00;99.90
70076;DHT22;63241;51.056;3.698;2022-11-15T16:52:58;12.10;99.90
70076;DHT22;63241;51.056;3.698;2022-11-15T16:55:44;12.10;99.90
70076;DHT22;63241;51.056;3.698;2022-11-15T16:58:57;12.10;99.90
70076;DHT22;63241;51.056;3.698;2022-11-15T17:01:43;12.00;99.90
70076;DHT22;63241;51.056;3.698;2022-11-15T17:04:34;12.10;99.90
70076;DHT22;63241;51.056;3.698;2022-11-15T17:07:23;12.10;99.90
70076;DHT22;63241;51.056;3.698;2022-11-15T17:10:12;12.10;99.90
70076;DHT22;63241;51.056;3.698;2022-11-15T17:13:01;12.20;99.90
70076;DHT22;63241;51.056;3.698;2022-11-15T17:16:01;12.20;99.90
70076;DHT22;63241;51.056;3.698;2022-11-15T17:18:41;12.20;99.90
70076;DHT22;63241;51.056;3.698;2022-11-15T17:21:30;12.20;99.90
70076;DHT22;63241;51.056;3.698;2022-11-15T17:27:25;12.30;99.90
70076;DHT22;63241;51.056;3.698;2022-11-15T17:33:21;12.30;99.90
70076;DHT22;63241;51.056;3.698;2022-11-15T17:36:10;12.30;99.90
70076;DHT22;63241;51.056;3.698;2022-11-15T17:38:57;12.20;99.90
70076;DHT22;63241;51.056;3.698;2022-11-15T17:41:47;12.30;99.90
70076;DHT22;63241;51.056;3.698;2022-11-15T17:44:35;12.20;99.90
70076;DHT22;63241;51.056;3.698;2022-11-15T17:47:26;12.20;99.90
70076;DHT22;63241;51.056;3.698;2022-11-15T17:50:14;12.20;99.90
70076;DHT22;63241;51.056;3.698;2022-11-15T17:53:03;12.20;99.90
70076;DHT22;63241;51.056;3.698;2022-11-15T17:55:50;12.20;99.90
70076;DHT22;63241;51.056;3.698;2022-11-15T17:58:38;12.20;99.90
70076;DHT22;63241;51.056;3.698;2022-11-15T18:01:30;12.10;99.90
70076;DHT22;63241;51.056;3.698;2022-11-15T18:04:17;12.20;99.90
70076;DHT22;63241;51.056;3.698;2022-11-15T18:07:06;12.20;99.90
70076;DHT22;63241;51.056;3.698;2022-11-15T18:09:56;12.10;99.90
70076;DHT22;63241;51.056;3.698;2022-11-15T18:12:44;12.10;99.90
70076;DHT22;63241;51.056;3.698;2022-11-15T18:15:31;12.10;99.90
70076;DHT22;63241;51.056;3.698;2022-11-15T18:18:20;12.20;99.90
70076;DHT22;63241;51.056;3.698;2022-11-15T18:21:12;12.20;99.90
70076;DHT22;63241;51.056;3.698;2022-11-15T18:27:09;12.20;99.90
70076;DHT22;63241;51.056;3.698;2022-11-15T18:29:56;12.30;99.90
70076;DHT22;63241;51.056;3.698;2022-11-15T18:32:46;12.20;99.90
70076;DHT22;63241;51.056;3.698;2022-11-15T18:35:32;12.20;99.90
70076;DHT22;63241;51.056;3.698;2022-11-15T18:38:24;12.10;99.90
70076;DHT22;63241;51.056;3.698;2022-11-15T18:44:21;12.20;99.90
70076;DHT22;63241;51.056;3.698;2022-11-15T18:47:10;12.20;99.90
70076;DHT22;63241;51.056;3.698;2022-11-15T18:49:58;12.20;99.90
70076;DHT22;63241;51.056;3.698;2022-11-15T18:52:44;12.20;99.90
70076;DHT22;63241;51.056;3.698;2022-11-15T18:55:32;12.20;99.90
70076;DHT22;63241;51.056;3.698;2022-11-15T18:58:20;12.20;99.90
70076;DHT22;63241;51.056;3.698;2022-11-15T19:01:23;12.30;99.90
70076;DHT22;63241;51.056;3.698;2022-11-15T19:04:13;12.40;99.90
70076;DHT22;63241;51.056;3.698;2022-11-15T19:07:01;12.30;99.90
70076;DHT22;63241;51.056;3.698;2022-11-15T19:09:51;12.30;99.90
70076;DHT22;63241;51.056;3.698;2022-11-15T19:12:38;12.30;99.90
70076;DHT22;63241;51.056;3.698;2022-11-15T19:15:26;12.30;99.90
70076;DHT22;63241;51.056;3.698;2022-11-15T19:18:14;12.30;99.90
70076;DHT22;63241;51.056;3.698;2022-11-15T19:21:05;12.40;99.90
70076;DHT22;63241;51.056;3.698;2022-11-15T19:23:55;12.40;99.90
70076;DHT22;63241;51.056;3.698;2022-11-15T19:26:46;12.40;99.90
70076;DHT22;63241;51.056;3.698;2022-11-15T19:29:33;12.50;99.90
70076;DHT22;63241;51.056;3.698;2022-11-15T19:32:21;12.50;99.90
70076;DHT22;63241;51.056;3.698;2022-11-15T19:35:09;12.50;99.90
70076;DHT22;63241;51.056;3.698;2022-11-15T19:37:58;12.50;99.90
70076;DHT22;63241;51.056;3.698;2022-11-15T19:40:47;12.50;99.90
70076;DHT22;63241;51.056;3.698;2022-11-15T19:43:35;12.60;99.90
70076;DHT22;63241;51.056;3.698;2022-11-15T19:48:50;12.60;99.90
70076;DHT22;63241;51.056;3.698;2022-11-15T19:51:39;12.60;99.90
70076;DHT22;63241;51.056;3.698;2022-11-15T19:54:30;12.70;99.90
70076;DHT22;63241;51.056;3.698;2022-11-15T19:57:19;12.70;99.90
70076;DHT22;63241;51.056;3.698;2022-11-15T20:00:09;12.60;99.90
70076;DHT22;63241;51.056;3.698;2022-11-15T20:02:57;12.70;99.90
70076;DHT22;63241;51.056;3.698;2022-11-15T20:05:45;12.60;99.90
70076;DHT22;63241;51.056;3.698;2022-11-15T20:10:58;12.60;99.90
70076;DHT22;63241;51.056;3.698;2022-11-15T20:13:47;12.60;99.90
70076;DHT22;63241;51.056;3.698;2022-11-15T20:16:35;12.60;99.90
70076;DHT22;63241;51.056;3.698;2022-11-15T20:19:23;12.70;99.90
70076;DHT22;63241;51.056;3.698;2022-11-15T20:22:11;12.70;99.90
70076;DHT22;63241;51.056;3.698;2022-11-15T20:25:00;12.80;99.90
70076;DHT22;63241;51.056;3.698;2022-11-15T20:27:48;12.70;99.90